createdAt,value
2023-02-08T00:01:19.291Z,25.80
2023-02-08T00:03:48.364Z,25.90
2023-02-08T00:06:17.157Z,24.40
2023-02-08T00:08:45.654Z,24.40
2023-02-08T00:11:13.742Z,22.40
2023-02-08T00:13:42.435Z,22.30
2023-02-08T00:16:12.940Z,24.30
2023-02-08T00:18:41.924Z,28.30
2023-02-08T00:21:15.212Z,29.00
2023-02-08T00:23:43.817Z,26.60
2023-02-08T00:26:11.865Z,27.20
2023-02-08T00:28:40.687Z,26.00
2023-02-08T00:31:08.811Z,23.00
2023-02-08T00:33:36.868Z,22.50
2023-02-08T00:36:07.576Z,22.00
2023-02-08T00:38:36.478Z,20.80
2023-02-08T00:41:05.185Z,21.00
2023-02-08T00:43:33.614Z,20.20
2023-02-08T00:46:02.243Z,20.10
2023-02-08T00:48:30.466Z,21.30
2023-02-08T00:51:09.426Z,20.60
2023-02-08T00:53:39.531Z,20.00
2023-02-08T00:56:09.848Z,19.70
2023-02-08T00:58:38.228Z,22.10
2023-02-08T01:01:07.715Z,20.50
2023-02-08T01:03:38.451Z,20.10
2023-02-08T01:06:10.532Z,23.20
2023-02-08T01:08:38.522Z,22.20
2023-02-08T01:11:11.206Z,24.40
2023-02-08T01:13:40.039Z,24.10
2023-02-08T01:16:13.644Z,24.50
2023-02-08T01:18:43.900Z,24.70
2023-02-08T01:21:14.654Z,24.60
2023-02-08T01:23:43.842Z,24.40
2023-02-08T01:26:13.178Z,25.40
2023-02-08T01:28:41.989Z,25.80
2023-02-08T01:31:13.562Z,26.70
2023-02-08T01:33:41.987Z,25.40
2023-02-08T01:36:11.428Z,23.60
2023-02-08T01:38:40.003Z,23.60
2023-02-08T01:41:14.324Z,23.10
2023-02-08T01:44:02.964Z,24.10
2023-02-08T01:46:35.284Z,24.60
2023-02-08T01:49:09.739Z,24.70
2023-02-08T01:51:42.211Z,25.70
2023-02-08T01:54:12.467Z,23.00
2023-02-08T01:56:45.875Z,23.00
2023-02-08T01:59:22.414Z,23.20
2023-02-08T02:01:53.697Z,23.20
2023-02-08T02:04:22.171Z,28.20
2023-02-08T02:06:56.765Z,27.10
2023-02-08T02:09:47.888Z,25.40
2023-02-08T02:12:17.832Z,23.80
2023-02-08T02:14:46.255Z,22.90
2023-02-08T02:17:16.862Z,22.20
2023-02-08T02:19:44.980Z,20.30
2023-02-08T02:22:57.959Z,18.80
2023-02-08T02:25:52.497Z,18.00
2023-02-08T02:28:35.817Z,16.70
2023-02-08T02:31:25.245Z,16.60
2023-02-08T02:34:08.508Z,15.40
2023-02-08T02:37:16.850Z,15.20
2023-02-08T02:39:51.225Z,15.30
2023-02-08T02:42:56.797Z,16.10
2023-02-08T02:45:47.862Z,15.80
2023-02-08T02:48:24.889Z,15.40
2023-02-08T02:50:59.723Z,14.80
2023-02-08T02:54:01.174Z,14.40
2023-02-08T02:56:37.103Z,15.50
2023-02-08T02:59:08.445Z,13.50
2023-02-08T03:01:37.583Z,15.00
2023-02-08T03:04:16.296Z,15.40
2023-02-08T03:06:50.364Z,15.30
2023-02-08T03:09:36.893Z,16.50
2023-02-08T03:12:28.860Z,14.80
2023-02-08T03:14:59.889Z,16.20
2023-02-08T03:17:35.287Z,14.60
2023-02-08T03:20:09.549Z,13.30
2023-02-08T03:22:51.508Z,13.60
2023-02-08T03:25:51.864Z,13.90
2023-02-08T03:28:28.937Z,14.50
2023-02-08T03:31:17.659Z,15.50
2023-02-08T03:33:53.966Z,14.70
2023-02-08T03:36:43.909Z,15.20
2023-02-08T03:39:17.072Z,13.40
2023-02-08T03:41:48.832Z,12.70
2023-02-08T03:44:22.743Z,14.40
2023-02-08T03:47:00.800Z,14.60
2023-02-08T03:49:34.268Z,13.50
2023-02-08T03:52:06.780Z,13.30
2023-02-08T03:54:55.075Z,12.60
2023-02-08T03:57:48.580Z,13.40
2023-02-08T04:00:18.877Z,14.50
2023-02-08T04:02:57.185Z,15.90
2023-02-08T04:05:25.620Z,15.00
2023-02-08T04:07:53.959Z,17.40
2023-02-08T04:10:22.000Z,15.50
2023-02-08T04:12:50.229Z,14.60
2023-02-08T04:15:18.473Z,14.40
2023-02-08T04:17:46.510Z,14.50
2023-02-08T04:20:14.536Z,15.80
2023-02-08T04:22:42.596Z,16.50
2023-02-08T04:25:10.981Z,16.20
2023-02-08T04:27:39.046Z,18.90
2023-02-08T04:30:07.540Z,18.10
2023-02-08T04:32:35.547Z,17.20
2023-02-08T04:35:04.183Z,17.70
2023-02-08T04:37:32.457Z,18.40
2023-02-08T04:40:00.597Z,15.90
2023-02-08T04:42:28.700Z,14.90
2023-02-08T04:44:56.664Z,18.30
2023-02-08T04:47:24.671Z,22.00
2023-02-08T04:49:52.660Z,20.40
2023-02-08T04:52:20.647Z,20.60
2023-02-08T04:54:48.601Z,20.40
2023-02-08T04:57:16.778Z,20.50
2023-02-08T04:59:44.721Z,21.10
2023-02-08T05:02:12.962Z,22.70
2023-02-08T05:04:40.953Z,23.50
2023-02-08T05:07:08.893Z,22.20
2023-02-08T05:09:36.951Z,23.60
2023-02-08T05:12:05.709Z,21.80
2023-02-08T05:14:33.665Z,22.10
2023-02-08T05:17:01.665Z,22.10
2023-02-08T05:19:29.759Z,21.50
2023-02-08T05:21:57.820Z,23.00
2023-02-08T05:24:26.271Z,21.60
2023-02-08T05:26:54.422Z,22.50
2023-02-08T05:29:22.422Z,21.30
2023-02-08T05:31:50.500Z,21.40
2023-02-08T05:34:18.521Z,20.90
2023-02-08T05:36:46.660Z,19.90
2023-02-08T05:39:14.666Z,20.20
2023-02-08T05:41:42.625Z,20.50
2023-02-08T05:44:10.766Z,19.90
2023-02-08T05:46:39.189Z,20.90
2023-02-08T05:49:07.928Z,22.70
2023-02-08T05:51:35.992Z,23.90
2023-02-08T05:54:04.990Z,23.80
2023-02-08T05:56:33.125Z,25.00
2023-02-08T05:59:02.355Z,26.20
2023-02-08T06:01:30.681Z,25.50
2023-02-08T06:04:00.227Z,25.50
2023-02-08T06:06:28.620Z,26.00
2023-02-08T06:08:56.564Z,25.10
2023-02-08T06:11:25.065Z,26.60
2023-02-08T06:13:52.987Z,26.40
2023-02-08T06:16:20.974Z,27.60
2023-02-08T06:18:49.038Z,27.10
2023-02-08T06:21:17.035Z,26.80
2023-02-08T06:23:45.153Z,27.30
2023-02-08T06:26:13.180Z,27.40
2023-02-08T06:28:41.144Z,26.50
2023-02-08T06:31:09.217Z,25.90
2023-02-08T06:33:37.302Z,25.90
2023-02-08T06:36:05.865Z,25.30
2023-02-08T06:38:33.837Z,24.80
2023-02-08T06:41:01.843Z,25.30
2023-02-08T06:43:29.862Z,24.00
2023-02-08T06:45:57.871Z,25.00
2023-02-08T06:48:26.223Z,24.60
2023-02-08T06:50:55.283Z,24.20
2023-02-08T06:53:23.286Z,25.10
2023-02-08T06:55:52.170Z,24.30
2023-02-08T06:58:20.442Z,24.60
2023-02-08T07:00:48.651Z,24.00
2023-02-08T07:03:19.659Z,22.90
2023-02-08T07:06:03.718Z,24.20
2023-02-08T07:08:34.499Z,25.00
2023-02-08T07:11:07.672Z,24.90
2023-02-08T07:13:37.298Z,24.70
2023-02-08T07:16:07.720Z,25.40
2023-02-08T07:18:37.067Z,23.70
2023-02-08T07:21:06.035Z,24.20
2023-02-08T07:23:34.126Z,24.20
2023-02-08T07:26:05.689Z,24.90
2023-02-08T07:28:34.035Z,23.60
2023-02-08T07:31:10.681Z,24.60
2023-02-08T07:33:39.624Z,25.70
2023-02-08T07:36:09.123Z,26.50
2023-02-08T07:38:38.111Z,26.40
2023-02-08T07:41:14.254Z,27.40
2023-02-08T07:43:43.298Z,26.90
2023-02-08T07:46:18.788Z,27.60
2023-02-08T07:48:47.452Z,27.40
2023-02-08T07:51:16.082Z,27.50
2023-02-08T07:53:44.368Z,28.40
2023-02-08T07:56:12.385Z,27.50
2023-02-08T07:58:41.116Z,27.10
2023-02-08T08:01:21.314Z,28.00
2023-02-08T08:03:51.369Z,27.70
2023-02-08T08:06:21.785Z,28.00
2023-02-08T08:08:50.166Z,27.60
2023-02-08T08:11:21.377Z,28.10
2023-02-08T08:13:50.221Z,28.70
2023-02-08T08:16:18.848Z,29.80
2023-02-08T08:18:47.611Z,30.60
2023-02-08T08:21:16.977Z,32.50
2023-02-08T08:23:45.298Z,33.00
2023-02-08T08:26:19.333Z,35.00
2023-02-08T08:28:48.343Z,34.30
2023-02-08T08:31:19.414Z,35.50
2023-02-08T08:33:47.912Z,34.00
2023-02-08T08:36:15.907Z,36.90
2023-02-08T08:38:44.039Z,35.60
2023-02-08T08:41:22.451Z,37.50
2023-02-08T08:43:50.564Z,34.20
2023-02-08T08:46:18.824Z,35.00
2023-02-08T08:48:46.988Z,36.20
2023-02-08T08:51:15.355Z,35.10
2023-02-08T08:53:43.778Z,39.80
2023-02-08T08:56:12.106Z,36.50
2023-02-08T08:58:40.282Z,34.90
2023-02-08T09:01:08.272Z,34.50
2023-02-08T09:03:36.274Z,34.90
2023-02-08T09:06:04.275Z,37.20
2023-02-08T09:08:32.504Z,35.00
2023-02-08T09:11:08.401Z,33.70
2023-02-08T09:13:37.169Z,32.80
2023-02-08T09:16:10.983Z,34.80
2023-02-08T09:18:39.353Z,32.80
2023-02-08T09:21:08.968Z,38.40
2023-02-08T09:23:37.678Z,42.60
2023-02-08T09:26:08.029Z,39.80
2023-02-08T09:28:36.260Z,36.30
2023-02-08T09:31:14.234Z,36.90
2023-02-08T09:33:42.364Z,34.90
2023-02-08T09:36:11.132Z,31.90
2023-02-08T09:38:39.565Z,32.10
2023-02-08T09:41:16.421Z,31.90
2023-02-08T09:43:56.243Z,28.70
2023-02-08T09:46:28.433Z,30.00
2023-02-08T09:49:00.456Z,28.90
2023-02-08T09:51:42.435Z,28.90
2023-02-08T09:54:20.764Z,30.80
2023-02-08T09:56:50.487Z,30.90
2023-02-08T09:59:31.614Z,31.70
2023-02-08T10:02:01.883Z,29.80
2023-02-08T10:04:40.520Z,30.80
2023-02-08T10:07:11.337Z,29.70
2023-02-08T10:09:39.701Z,29.30
2023-02-08T10:12:19.933Z,30.30
2023-02-08T10:15:19.569Z,29.70
2023-02-08T10:18:24.897Z,29.40
2023-02-08T10:21:41.323Z,30.10
2023-02-08T10:24:18.018Z,32.70
2023-02-08T10:27:07.986Z,30.10
2023-02-08T10:30:11.578Z,30.70
2023-02-08T10:33:05.631Z,31.80
2023-02-08T10:35:42.744Z,31.30
2023-02-08T10:38:45.504Z,31.70
2023-02-08T10:41:24.655Z,33.10
2023-02-08T10:44:01.660Z,33.60
2023-02-08T10:46:38.183Z,33.20
2023-02-08T10:49:25.977Z,37.30
2023-02-08T10:51:54.256Z,36.00
2023-02-08T10:54:22.454Z,41.50
2023-02-08T10:57:06.696Z,37.00
2023-02-08T10:59:49.594Z,40.20
2023-02-08T11:02:23.935Z,39.40
2023-02-08T11:05:31.299Z,36.20
2023-02-08T11:08:10.166Z,36.90
2023-02-08T11:10:40.112Z,35.50
2023-02-08T11:13:14.091Z,37.30
2023-02-08T11:15:52.830Z,37.20
2023-02-08T11:18:34.103Z,38.80
2023-02-08T11:21:03.455Z,36.60
2023-02-08T11:23:34.561Z,36.20
2023-02-08T11:26:31.188Z,35.00
2023-02-08T11:29:20.659Z,36.40
2023-02-08T11:32:19.985Z,36.30
2023-02-08T11:34:49.054Z,38.20
2023-02-08T11:37:26.741Z,36.70
2023-02-08T11:40:06.262Z,38.20
2023-02-08T11:42:47.180Z,38.90
2023-02-08T11:45:25.958Z,38.30
2023-02-08T11:47:54.684Z,38.30
2023-02-08T11:50:35.439Z,39.90
2023-02-08T11:53:23.420Z,41.00
2023-02-08T11:56:14.382Z,38.40
2023-02-08T11:58:43.070Z,37.60
2023-02-08T12:01:20.874Z,38.00
2023-02-08T12:03:50.888Z,40.00
2023-02-08T12:06:33.997Z,39.30
2023-02-08T12:09:23.473Z,44.40
2023-02-08T12:12:06.287Z,42.10
2023-02-08T12:14:58.922Z,39.00
2023-02-08T12:18:07.233Z,40.30
2023-02-08T12:20:45.707Z,41.90
2023-02-08T12:23:34.160Z,40.30
2023-02-08T12:26:14.884Z,40.20
2023-02-08T12:28:43.125Z,39.50
2023-02-08T12:31:18.864Z,38.90
2023-02-08T12:33:55.899Z,39.40
2023-02-08T12:36:48.630Z,40.20
2023-02-08T12:40:01.496Z,37.60
2023-02-08T12:43:14.929Z,37.50
2023-02-08T12:46:28.058Z,39.70
2023-02-08T12:49:36.379Z,38.20
2023-02-08T12:52:27.749Z,37.80
2023-02-08T12:55:02.050Z,38.70
2023-02-08T12:57:32.662Z,36.90
2023-02-08T13:00:17.299Z,38.10
2023-02-08T13:03:07.137Z,35.00
2023-02-08T13:05:41.721Z,33.90
2023-02-08T13:08:36.215Z,37.90
2023-02-08T13:11:19.740Z,37.00
2023-02-08T13:14:01.182Z,36.70
2023-02-08T13:16:45.894Z,37.30
2023-02-08T13:19:58.979Z,37.30
2023-02-08T13:22:32.555Z,36.60
2023-02-08T13:25:08.261Z,36.00
2023-02-08T13:27:37.089Z,35.80
2023-02-08T13:30:06.249Z,34.80
2023-02-08T13:32:44.279Z,35.90
2023-02-08T13:35:20.361Z,32.40
2023-02-08T13:39:37.292Z,33.20
2023-02-08T13:42:08.609Z,35.60
2023-02-08T13:44:40.885Z,32.40
2023-02-08T13:47:25.369Z,34.40
2023-02-08T13:50:05.581Z,34.60
2023-02-08T13:52:46.519Z,34.10
2023-02-08T13:55:36.085Z,35.30
2023-02-08T13:58:33.932Z,34.70
2023-02-08T14:01:14.067Z,33.00
2023-02-08T14:03:42.987Z,33.20
2023-02-08T14:06:19.337Z,35.10
2023-02-08T14:09:11.987Z,33.60
2023-02-08T14:11:49.100Z,35.00
2023-02-08T14:14:30.619Z,32.20
2023-02-08T14:17:04.513Z,32.50
2023-02-08T14:19:35.785Z,33.40
2023-02-08T14:22:17.776Z,34.40
2023-02-08T14:24:50.703Z,34.00
2023-02-08T14:27:31.826Z,36.10
2023-02-08T14:30:04.908Z,35.50
2023-02-08T14:32:39.446Z,38.50
2023-02-08T14:35:21.229Z,38.60
2023-02-08T14:37:55.882Z,38.40
2023-02-08T14:40:29.363Z,40.40
2023-02-08T14:43:25.510Z,39.60
2023-02-08T14:45:55.023Z,38.80
2023-02-08T14:48:45.888Z,36.80
2023-02-08T14:51:27.880Z,39.80
2023-02-08T14:54:03.851Z,44.70
2023-02-08T14:56:37.452Z,46.40
2023-02-08T14:59:11.445Z,46.00
2023-02-08T15:01:44.254Z,42.50
2023-02-08T15:04:18.548Z,40.30
2023-02-08T15:07:17.977Z,40.80
2023-02-08T15:09:46.456Z,45.50
2023-02-08T15:12:29.634Z,43.00
2023-02-08T15:15:00.362Z,43.80
2023-02-08T15:17:37.166Z,45.70
2023-02-08T15:20:09.320Z,45.70
2023-02-08T15:22:42.119Z,45.10
2023-02-08T15:25:25.927Z,42.00
2023-02-08T15:28:00.896Z,43.00
2023-02-08T15:30:33.144Z,41.80
2023-02-08T15:33:03.628Z,44.40
2023-02-08T15:35:34.737Z,41.30
2023-02-08T15:38:07.178Z,40.50
2023-02-08T15:40:35.727Z,42.10
2023-02-08T15:43:12.352Z,41.10
2023-02-08T15:45:40.660Z,42.10
2023-02-08T15:48:09.127Z,40.00
2023-02-08T15:50:37.480Z,40.10
2023-02-08T15:53:07.785Z,38.40
2023-02-08T15:55:47.540Z,40.90
2023-02-08T15:58:29.007Z,41.20
2023-02-08T16:00:59.889Z,40.50
2023-02-08T16:03:29.514Z,41.20
2023-02-08T16:06:00.773Z,40.50
2023-02-08T16:08:32.457Z,40.80
2023-02-08T16:11:13.957Z,41.80
2023-02-08T16:13:48.132Z,40.20
2023-02-08T16:16:21.153Z,43.80
2023-02-08T16:18:58.583Z,45.50
2023-02-08T16:21:35.728Z,47.00
2023-02-08T16:24:21.435Z,51.30
2023-02-08T16:27:01.898Z,45.60
2023-02-08T16:29:40.750Z,45.20
2023-02-08T16:32:31.297Z,38.60
2023-02-08T16:35:01.610Z,41.90
2023-02-08T16:37:32.347Z,40.20
2023-02-08T16:40:00.272Z,40.30
2023-02-08T16:42:34.261Z,41.10
2023-02-08T16:45:08.169Z,47.70
2023-02-08T16:47:38.063Z,49.20
2023-02-08T16:50:09.582Z,51.90
2023-02-08T16:52:38.417Z,45.50
2023-02-08T16:55:07.840Z,39.40
2023-02-08T16:57:48.391Z,44.70
2023-02-08T17:00:23.256Z,41.40
2023-02-08T17:02:52.119Z,41.60
2023-02-08T17:05:22.640Z,40.40
2023-02-08T17:07:51.087Z,40.70
2023-02-08T17:10:25.159Z,41.40
2023-02-08T17:13:06.828Z,41.00
2023-02-08T17:15:44.029Z,45.20
2023-02-08T17:18:14.410Z,49.00
2023-02-08T17:20:43.082Z,46.30
2023-02-08T17:23:12.085Z,42.90
2023-02-08T17:25:41.450Z,45.90
2023-02-08T17:28:18.670Z,51.50
2023-02-08T17:30:49.030Z,56.60
2023-02-08T17:33:20.748Z,55.60
2023-02-08T17:35:51.697Z,58.20
2023-02-08T17:38:29.048Z,58.50
2023-02-08T17:41:00.650Z,52.50
2023-02-08T17:43:29.760Z,47.70
2023-02-08T17:45:57.913Z,52.00
2023-02-08T17:48:27.206Z,49.70
2023-02-08T17:50:55.351Z,61.50
2023-02-08T17:53:23.500Z,61.50
2023-02-08T17:55:52.733Z,50.80
2023-02-08T17:58:20.805Z,49.70
2023-02-08T18:00:49.071Z,50.50
2023-02-08T18:03:18.057Z,61.00
2023-02-08T18:05:46.805Z,57.80
2023-02-08T18:08:15.548Z,51.60
2023-02-08T18:10:44.849Z,51.00
2023-02-08T18:13:13.393Z,50.30
2023-02-08T18:15:41.939Z,49.20
2023-02-08T18:18:10.779Z,51.80
2023-02-08T18:20:43.966Z,49.00
2023-02-08T18:23:12.551Z,53.00
2023-02-08T18:25:42.064Z,59.10
2023-02-08T18:28:14.727Z,54.20
2023-02-08T18:30:42.883Z,54.00
2023-02-08T18:33:10.979Z,48.30
2023-02-08T18:35:38.919Z,56.10
2023-02-08T18:38:06.905Z,50.20
2023-02-08T18:40:34.881Z,52.40
2023-02-08T18:43:02.983Z,49.20
2023-02-08T18:45:30.980Z,48.80
2023-02-08T18:47:59.906Z,49.80
2023-02-08T18:50:29.953Z,48.90
2023-02-08T18:52:59.209Z,50.10
2023-02-08T18:55:27.600Z,50.40
2023-02-08T18:57:55.715Z,64.80
2023-02-08T19:00:23.798Z,72.40
2023-02-08T19:02:52.118Z,64.90
2023-02-08T19:05:20.315Z,45.30
2023-02-08T19:07:48.461Z,44.20
2023-02-08T19:10:16.493Z,39.90
2023-02-08T19:12:44.602Z,39.30
2023-02-08T19:15:12.825Z,40.00
2023-02-08T19:17:41.057Z,42.70
2023-02-08T19:20:09.971Z,38.50
2023-02-08T19:22:37.976Z,38.70
2023-02-08T19:25:07.210Z,36.60
2023-02-08T19:27:35.381Z,39.90
2023-02-08T19:30:04.594Z,42.70
2023-02-08T19:32:32.673Z,40.70
2023-02-08T19:35:00.920Z,40.00
2023-02-08T19:37:29.005Z,38.70
2023-02-08T19:39:57.034Z,39.20
2023-02-08T19:42:25.120Z,39.50
2023-02-08T19:44:53.221Z,37.50
2023-02-08T19:47:43.470Z,38.60
2023-02-08T19:50:14.542Z,40.90
2023-02-08T19:52:43.749Z,38.40
2023-02-08T19:55:11.835Z,38.10
2023-02-08T19:57:40.599Z,40.50
2023-02-08T20:00:22.399Z,44.70
2023-02-08T20:02:52.221Z,42.50
2023-02-08T20:05:20.377Z,45.00
2023-02-08T20:07:48.393Z,51.10
2023-02-08T20:10:16.408Z,50.50
2023-02-08T20:12:44.335Z,60.30
2023-02-08T20:15:12.361Z,57.30
2023-02-08T20:17:41.282Z,49.40
2023-02-08T20:20:09.842Z,45.90
2023-02-08T20:22:37.944Z,43.20
2023-02-08T20:25:06.803Z,43.20
2023-02-08T20:27:35.280Z,41.10
2023-02-08T20:30:04.332Z,43.00
2023-02-08T20:32:32.442Z,39.40
2023-02-08T20:35:00.570Z,41.10
2023-02-08T20:37:28.780Z,40.70
2023-02-08T20:39:57.321Z,39.00
2023-02-08T20:42:25.934Z,39.50
2023-02-08T20:44:53.955Z,38.90
2023-02-08T20:47:22.202Z,40.50
2023-02-08T20:49:50.960Z,42.90
2023-02-08T20:52:19.249Z,40.80
2023-02-08T20:54:48.026Z,39.30
2023-02-08T20:57:18.083Z,40.80
2023-02-08T20:59:46.221Z,40.50
2023-02-08T21:02:18.452Z,42.80
2023-02-08T21:04:46.865Z,45.80
2023-02-08T21:07:16.093Z,46.20
2023-02-08T21:09:44.747Z,49.10
2023-02-08T21:12:13.149Z,46.50
2023-02-08T21:14:43.227Z,44.30
2023-02-08T21:17:11.855Z,41.80
2023-02-08T21:19:39.922Z,39.40
2023-02-08T21:22:08.070Z,38.10
2023-02-08T21:24:36.076Z,36.40
2023-02-08T21:27:04.307Z,41.50
2023-02-08T21:29:32.899Z,38.70
2023-02-08T21:32:01.346Z,40.50
2023-02-08T21:34:29.753Z,38.60
2023-02-08T21:36:57.704Z,38.40
2023-02-08T21:39:25.679Z,39.10
2023-02-08T21:41:55.545Z,38.70
2023-02-08T21:44:23.856Z,36.30
2023-02-08T21:46:51.834Z,35.00
2023-02-08T21:49:45.917Z,33.90
2023-02-08T21:52:32.185Z,35.30
2023-02-08T21:55:00.292Z,33.70
2023-02-08T21:57:30.522Z,32.30
2023-02-08T21:59:59.903Z,34.00
2023-02-08T22:02:30.187Z,35.70
2023-02-08T22:05:20.086Z,36.90
2023-02-08T22:07:57.429Z,44.60
2023-02-08T22:10:28.542Z,52.00
2023-02-08T22:12:57.440Z,64.70
2023-02-08T22:15:27.934Z,64.90
2023-02-08T22:18:01.957Z,65.70
2023-02-08T22:20:30.912Z,55.90
2023-02-08T22:22:59.099Z,52.10
2023-02-08T22:25:27.099Z,45.70
2023-02-08T22:27:55.271Z,45.70
2023-02-08T22:30:25.500Z,47.00
2023-02-08T22:32:53.775Z,39.50
2023-02-08T22:35:21.855Z,33.80
2023-02-08T22:37:50.183Z,34.80
2023-02-08T22:40:18.608Z,33.80
2023-02-08T22:42:46.650Z,37.60
2023-02-08T22:45:14.774Z,44.40
2023-02-08T22:47:42.727Z,48.30
2023-02-08T22:50:10.782Z,51.60
2023-02-08T22:52:38.998Z,55.00
2023-02-08T22:55:07.830Z,60.70
2023-02-08T22:57:36.549Z,56.70
2023-02-08T23:00:07.716Z,57.30
2023-02-08T23:02:35.861Z,53.50
2023-02-08T23:05:04.117Z,51.20
2023-02-08T23:07:32.603Z,45.30
2023-02-08T23:10:00.804Z,45.90
2023-02-08T23:12:29.092Z,53.90
2023-02-08T23:14:57.158Z,55.50
2023-02-08T23:17:25.170Z,50.50
2023-02-08T23:19:53.325Z,47.10
2023-02-08T23:22:21.324Z,44.60
2023-02-08T23:24:49.597Z,45.10
2023-02-08T23:27:17.888Z,50.20
2023-02-08T23:29:45.854Z,48.50
2023-02-08T23:32:13.885Z,47.70
2023-02-08T23:34:41.971Z,41.90
2023-02-08T23:37:09.970Z,40.50
2023-02-08T23:39:38.025Z,40.90
2023-02-08T23:42:06.119Z,38.00
2023-02-08T23:44:34.072Z,33.60
2023-02-08T23:47:02.129Z,32.70
2023-02-08T23:49:30.297Z,31.20
2023-02-08T23:51:58.224Z,32.30
2023-02-08T23:54:26.210Z,34.70
2023-02-08T23:56:54.416Z,32.80
2023-02-08T23:59:22.487Z,31.70
